createdAt,value
2018-01-21T00:02:10.527Z,18.83
2018-01-21T00:04:38.555Z,16.62
2018-01-21T00:07:08.467Z,20.37
2018-01-21T00:09:37.387Z,16.40
2018-01-21T00:12:06.293Z,17.77
2018-01-21T00:14:34.323Z,15.98
2018-01-21T00:17:03.354Z,17.30
2018-01-21T00:19:31.363Z,18.33
2018-01-21T00:22:00.319Z,20.40
2018-01-21T00:24:29.299Z,23.98
2018-01-21T00:26:58.215Z,21.15
2018-01-21T00:29:26.231Z,19.80
2018-01-21T00:31:54.243Z,18.58
2018-01-21T00:34:30.798Z,17.87
2018-01-21T00:36:58.807Z,17.70
2018-01-21T00:39:37.795Z,19.98
2018-01-21T00:42:07.821Z,19.58
2018-01-21T00:44:37.715Z,18.80
2018-01-21T00:47:19.268Z,17.25
2018-01-21T00:49:47.320Z,18.67
2018-01-21T00:52:19.250Z,17.65
2018-01-21T00:54:48.234Z,16.10
2018-01-21T00:57:16.246Z,17.83
2018-01-21T00:59:47.491Z,24.75
2018-01-21T01:02:28.871Z,19.40
2018-01-21T01:04:57.651Z,24.17
2018-01-21T01:07:28.363Z,20.37
2018-01-21T01:09:56.386Z,17.05
2018-01-21T01:12:34.842Z,16.00
2018-01-21T01:15:02.870Z,15.90
2018-01-21T01:17:37.911Z,11.82
2018-01-21T01:20:22.730Z,11.27
2018-01-21T01:22:55.294Z,14.80
2018-01-21T01:25:23.302Z,12.57
2018-01-21T01:27:55.218Z,13.18
2018-01-21T01:30:24.207Z,13.77
2018-01-21T01:32:57.298Z,15.48
2018-01-21T01:35:25.310Z,17.62
2018-01-21T01:38:01.094Z,13.98
2018-01-21T01:40:36.558Z,14.68
2018-01-21T01:43:06.326Z,15.32
2018-01-21T01:45:36.154Z,12.93
2018-01-21T01:48:06.104Z,14.77
2018-01-21T01:53:43.210Z,12.30
2018-01-21T01:56:17.614Z,17.27
2018-01-21T01:58:58.782Z,17.25
2018-01-21T02:01:39.328Z,14.25
2018-01-21T02:04:20.426Z,15.45
2018-01-21T02:10:07.794Z,13.30
2018-01-21T02:12:41.466Z,10.88
2018-01-21T02:15:17.889Z,13.75
2018-01-21T02:17:46.778Z,11.85
2018-01-21T02:20:37.893Z,16.08
2018-01-21T02:23:06.825Z,11.68
2018-01-21T02:25:38.566Z,13.77
2018-01-21T02:28:09.497Z,15.05
2018-01-21T02:30:39.337Z,9.63
2018-01-21T02:36:02.423Z,13.18
2018-01-21T02:38:36.715Z,10.52
2018-01-21T02:44:05.599Z,13.57
2018-01-21T02:46:34.522Z,14.63
2018-01-21T02:49:10.774Z,14.07
2018-01-21T02:51:38.782Z,14.93
2018-01-21T02:54:18.450Z,14.00
2018-01-21T02:59:39.986Z,16.77
2018-01-21T03:02:08.958Z,12.25
2018-01-21T03:07:35.580Z,14.10
2018-01-21T03:10:18.734Z,13.18
2018-01-21T03:12:48.598Z,15.07
2018-01-21T03:15:21.002Z,18.08
2018-01-21T03:20:44.689Z,18.65
2018-01-21T03:23:12.769Z,22.98
2018-01-21T03:25:45.530Z,15.88
2018-01-21T03:28:13.574Z,19.12
2018-01-21T03:31:00.546Z,20.02
2018-01-21T03:33:39.746Z,19.27
2018-01-21T03:39:04.899Z,18.30
2018-01-21T03:41:39.457Z,17.87
2018-01-21T03:44:09.434Z,17.02
2018-01-21T03:46:39.217Z,20.60
2018-01-21T03:49:07.234Z,16.10
2018-01-21T03:54:28.490Z,19.52
2018-01-21T03:57:02.325Z,18.87
2018-01-21T03:59:51.034Z,15.85
2018-01-21T04:05:14.745Z,16.48
2018-01-21T04:07:42.763Z,15.80
2018-01-21T04:10:29.894Z,18.85
2018-01-21T04:13:15.081Z,18.80
2018-01-21T04:16:04.109Z,15.65
2018-01-21T04:18:35.845Z,17.00
2018-01-21T04:29:52.202Z,14.10
2018-01-21T04:32:39.769Z,17.00
2018-01-21T04:35:37.949Z,14.65
2018-01-21T04:38:18.525Z,14.20
2018-01-21T04:40:51.872Z,16.65
2018-01-21T04:43:38.501Z,15.35
2018-01-21T04:46:10.934Z,14.77
2018-01-21T04:54:27.765Z,11.80
2018-01-21T04:57:01.977Z,19.65
2018-01-21T05:02:25.889Z,14.90
2018-01-21T05:04:54.885Z,16.27
2018-01-21T05:07:26.257Z,12.93
2018-01-21T05:16:15.161Z,12.73
2018-01-21T05:18:44.889Z,12.18
2018-01-21T05:21:16.789Z,11.85
2018-01-21T05:23:56.393Z,11.12
2018-01-21T05:26:36.045Z,13.25
2018-01-21T05:31:58.216Z,12.82
2018-01-21T05:34:34.481Z,11.95
2018-01-21T05:37:23.818Z,11.77
2018-01-21T05:39:53.785Z,13.43
2018-01-21T05:42:38.769Z,12.37
2018-01-21T05:45:08.589Z,13.18
2018-01-21T05:47:37.365Z,10.95
2018-01-21T05:50:11.953Z,10.98
2018-01-21T05:52:39.973Z,11.98
2018-01-21T05:55:09.740Z,10.93
2018-01-21T05:57:37.740Z,9.80
2018-01-21T06:00:12.919Z,8.70
2018-01-21T06:02:41.829Z,9.70
2018-01-21T06:05:28.261Z,9.95
2018-01-21T06:07:57.217Z,10.55
2018-01-21T06:10:28.781Z,13.00
2018-01-21T06:13:02.609Z,10.80
2018-01-21T06:15:40.461Z,8.32
2018-01-21T06:18:27.029Z,12.18
2018-01-21T06:20:57.724Z,13.50
2018-01-21T06:26:38.952Z,10.48
2018-01-21T06:29:28.449Z,10.45
2018-01-21T06:34:56.165Z,7.35
2018-01-21T06:37:28.953Z,9.57
2018-01-21T06:39:56.963Z,8.35
2018-01-21T06:42:25.732Z,9.77
2018-01-21T06:45:13.816Z,13.27
2018-01-21T06:50:40.968Z,10.05
2018-01-21T06:56:02.865Z,10.93
2018-01-21T06:58:37.912Z,10.85
2018-01-21T07:01:13.160Z,12.90
2018-01-21T07:03:41.176Z,12.88
2018-01-21T07:06:21.708Z,10.85
2018-01-21T07:08:58.005Z,12.52
2018-01-21T07:11:29.192Z,6.97
2018-01-21T07:14:02.860Z,11.35
2018-01-21T07:16:32.836Z,12.73
2018-01-21T07:19:05.068Z,10.15
2018-01-21T07:24:35.176Z,9.25
2018-01-21T07:27:05.148Z,8.95
2018-01-21T07:32:39.620Z,11.93
2018-01-21T07:35:12.029Z,12.68
2018-01-21T07:37:40.044Z,12.18
2018-01-21T07:40:08.075Z,11.93
2018-01-21T07:42:37.060Z,10.95
2018-01-21T07:45:07.112Z,10.82
2018-01-21T07:47:39.324Z,10.23
2018-01-21T07:53:18.881Z,7.20
2018-01-21T07:55:56.780Z,9.43
2018-01-21T07:58:39.544Z,10.15
2018-01-21T08:01:19.448Z,9.27
2018-01-21T08:03:48.448Z,9.20
2018-01-21T08:06:37.788Z,10.98
2018-01-21T08:09:11.025Z,8.35
2018-01-21T08:11:59.124Z,7.60
2018-01-21T08:14:27.125Z,9.27
2018-01-21T08:16:58.296Z,8.93
2018-01-21T08:19:40.128Z,7.32
2018-01-21T08:22:16.300Z,8.35
2018-01-21T08:24:46.240Z,7.18
2018-01-21T08:27:26.364Z,6.35
2018-01-21T08:30:18.504Z,8.15
2018-01-21T08:32:59.556Z,10.32
2018-01-21T08:35:33.140Z,6.05
2018-01-21T08:38:10.864Z,6.62
2018-01-21T08:40:51.000Z,5.28
2018-01-21T08:43:40.796Z,7.25
2018-01-21T08:49:10.061Z,6.50
2018-01-21T08:51:38.072Z,4.22
2018-01-21T08:54:16.032Z,5.55
2018-01-21T08:56:49.212Z,4.53
2018-01-21T08:59:18.956Z,6.95
2018-01-21T09:01:55.973Z,11.43
2018-01-21T09:04:25.920Z,5.95
2018-01-21T09:07:01.220Z,5.18
2018-01-21T09:09:33.856Z,4.65
2018-01-21T09:12:01.872Z,3.78
2018-01-21T09:17:28.756Z,6.95
2018-01-21T09:20:00.664Z,5.10
2018-01-21T09:22:29.441Z,4.18
2018-01-21T09:24:58.396Z,4.00
2018-01-21T09:27:26.388Z,3.80
2018-01-21T09:30:14.385Z,3.80
2018-01-21T09:32:50.032Z,3.85
2018-01-21T09:35:18.944Z,4.37
2018-01-21T09:37:58.788Z,3.28
2018-01-21T09:40:33.291Z,5.82
2018-01-21T09:43:05.996Z,4.60
2018-01-21T09:45:37.052Z,4.22
2018-01-21T09:48:05.064Z,5.95
2018-01-21T09:50:39.552Z,6.15
2018-01-21T09:53:09.551Z,3.67
2018-01-21T09:55:50.660Z,5.40
2018-01-21T09:58:24.092Z,3.78
2018-01-21T10:00:54.028Z,2.78
2018-01-21T10:03:22.028Z,3.65
2018-01-21T10:05:53.032Z,4.35
2018-01-21T10:08:21.032Z,3.85
2018-01-21T10:10:49.059Z,3.40
2018-01-21T10:13:20.060Z,3.78
2018-01-21T10:15:49.860Z,4.32
2018-01-21T10:18:18.632Z,3.80
2018-01-21T10:20:47.524Z,5.25
2018-01-21T10:23:15.532Z,4.80
2018-01-21T10:25:44.914Z,3.80
2018-01-21T10:28:14.840Z,3.00
2018-01-21T10:30:44.504Z,3.80
2018-01-21T10:33:13.960Z,4.20
2018-01-21T10:35:41.920Z,3.20
2018-01-21T10:38:15.883Z,4.20
2018-01-21T10:40:45.612Z,3.75
2018-01-21T10:43:19.056Z,5.75
2018-01-21T10:45:47.133Z,4.75
2018-01-21T10:48:15.880Z,3.50
2018-01-21T10:50:49.216Z,5.12
2018-01-21T10:53:36.116Z,3.62
2018-01-21T10:56:10.880Z,3.97
2018-01-21T10:58:42.744Z,3.00
2018-01-21T11:01:19.068Z,3.85
2018-01-21T11:04:06.308Z,4.18
2018-01-21T11:06:40.547Z,3.05
2018-01-21T11:09:08.580Z,3.17
2018-01-21T11:11:40.672Z,3.47
2018-01-21T11:14:23.932Z,4.18
2018-01-21T11:16:57.892Z,4.80
2018-01-21T11:19:25.908Z,4.60
2018-01-21T11:21:54.684Z,3.97
2018-01-21T11:24:22.766Z,3.10
2018-01-21T11:26:53.010Z,4.72
2018-01-21T11:29:24.099Z,3.60
2018-01-21T11:31:52.161Z,3.28
2018-01-21T11:34:29.436Z,3.50
2018-01-21T11:37:02.532Z,3.20
2018-01-21T11:39:40.636Z,3.37
2018-01-21T11:42:26.408Z,3.40
2018-01-21T11:44:54.519Z,3.97
2018-01-21T11:47:27.939Z,3.45
2018-01-21T11:50:03.635Z,3.75
2018-01-21T11:52:41.575Z,2.45
2018-01-21T11:55:23.267Z,4.15
2018-01-21T11:57:51.295Z,3.75
2018-01-21T12:00:24.999Z,4.07
2018-01-21T12:05:56.475Z,4.45
2018-01-21T12:08:26.451Z,4.57
2018-01-21T12:16:42.467Z,5.95
2018-01-21T12:19:24.827Z,4.30
2018-01-21T12:21:54.739Z,3.72
2018-01-21T12:24:25.263Z,4.70
2018-01-21T12:27:04.443Z,3.40
2018-01-21T12:29:34.315Z,3.67
2018-01-21T12:32:08.387Z,4.12
2018-01-21T12:34:37.235Z,4.07
2018-01-21T12:37:07.271Z,3.40
2018-01-21T12:39:41.707Z,4.07
2018-01-21T12:42:18.611Z,3.90
2018-01-21T12:44:50.515Z,4.05
2018-01-21T12:47:18.839Z,6.90
2018-01-21T12:49:50.723Z,4.40
2018-01-21T12:52:22.731Z,7.25
2018-01-21T12:55:09.999Z,4.93
2018-01-21T12:57:42.720Z,5.68
2018-01-21T13:00:12.759Z,5.70
2018-01-21T13:02:47.938Z,5.87
2018-01-21T13:05:29.650Z,4.60
2018-01-21T13:10:53.868Z,6.30
2018-01-21T13:13:23.875Z,5.40
2018-01-21T13:15:55.750Z,5.20
2018-01-21T13:18:28.507Z,4.43
2018-01-21T13:20:58.426Z,4.97
2018-01-21T13:23:26.443Z,4.70
2018-01-21T13:25:56.607Z,4.03
2018-01-21T13:28:25.491Z,5.00
2018-01-21T13:30:56.822Z,4.30
2018-01-21T13:33:37.167Z,3.70
2018-01-21T13:36:09.466Z,3.60
2018-01-21T13:38:41.394Z,4.35
2018-01-21T13:41:11.910Z,5.35
2018-01-21T13:43:41.682Z,7.22
2018-01-21T13:46:11.950Z,5.20
2018-01-21T13:48:40.874Z,4.68
2018-01-21T13:51:15.062Z,4.50
2018-01-21T13:53:49.502Z,4.87
2018-01-21T13:56:32.485Z,10.13
2018-01-21T13:59:00.546Z,6.60
2018-01-21T14:01:29.338Z,6.40
2018-01-21T14:04:12.758Z,6.00
2018-01-21T14:06:46.110Z,6.55
2018-01-21T14:09:23.734Z,5.10
2018-01-21T14:11:52.510Z,5.05
2018-01-21T14:14:21.478Z,6.80
2018-01-21T14:16:56.166Z,6.53
2018-01-21T14:19:30.654Z,8.85
2018-01-21T14:22:22.182Z,6.97
2018-01-21T14:24:58.811Z,6.50
2018-01-21T14:27:37.010Z,7.07
2018-01-21T14:30:05.954Z,12.60
2018-01-21T14:32:33.966Z,9.43
2018-01-21T14:35:07.182Z,9.55
2018-01-21T14:37:36.098Z,10.40
2018-01-21T14:40:09.074Z,6.87
2018-01-21T14:42:39.022Z,16.00
2018-01-21T14:45:15.574Z,7.75
2018-01-21T14:47:50.702Z,6.22
2018-01-21T14:50:19.690Z,7.50
2018-01-21T14:52:47.689Z,7.37
2018-01-21T14:55:17.614Z,8.90
2018-01-21T14:57:46.570Z,15.55
2018-01-21T15:00:21.012Z,12.77
2018-01-21T15:02:52.773Z,11.70
2018-01-21T15:05:21.765Z,11.05
2018-01-21T15:07:57.646Z,6.75
2018-01-21T15:10:37.658Z,11.20
2018-01-21T15:13:10.124Z,10.27
2018-01-21T15:15:39.905Z,15.75
2018-01-21T15:18:07.922Z,9.43
2018-01-21T15:20:43.413Z,11.95
2018-01-21T15:23:19.502Z,18.08
2018-01-21T15:25:48.298Z,11.82
2018-01-21T15:28:19.693Z,10.07
2018-01-21T15:31:00.397Z,8.10
2018-01-21T15:33:28.409Z,15.82
2018-01-21T15:35:58.310Z,12.10
2018-01-21T15:38:28.226Z,9.95
2018-01-21T15:40:58.193Z,13.43
2018-01-21T15:43:32.157Z,25.17
2018-01-21T15:46:02.062Z,21.12
2018-01-21T15:48:34.878Z,28.20
2018-01-21T15:51:19.894Z,9.98
2018-01-21T15:53:56.882Z,8.00
2018-01-21T15:56:39.664Z,10.00
2018-01-21T15:59:10.396Z,15.07
2018-01-21T16:01:40.305Z,23.83
2018-01-21T16:04:12.078Z,23.15
2018-01-21T16:06:41.050Z,31.05
2018-01-21T16:09:10.030Z,10.80
2018-01-21T16:11:39.025Z,14.10
2018-01-21T16:14:07.039Z,26.17
2018-01-21T16:16:35.817Z,26.85
2018-01-21T16:19:08.969Z,25.80
2018-01-21T16:21:38.873Z,24.45
2018-01-21T16:24:07.885Z,22.02
2018-01-21T16:26:35.889Z,14.55
2018-01-21T16:29:09.373Z,14.55
2018-01-21T16:31:43.773Z,30.70
2018-01-21T16:34:19.933Z,30.05
2018-01-21T16:36:55.853Z,17.00
2018-01-21T16:39:33.653Z,16.00
2018-01-21T16:42:08.881Z,23.90
2018-01-21T16:44:37.817Z,25.98
2018-01-21T16:47:05.832Z,20.48
2018-01-21T16:49:35.489Z,14.40
2018-01-21T16:52:07.753Z,14.35
2018-01-21T16:54:43.341Z,12.68
2018-01-21T16:57:17.521Z,11.15
2018-01-21T17:02:50.129Z,13.13
2018-01-21T17:05:20.141Z,13.02
2018-01-21T17:07:49.121Z,16.48
2018-01-21T17:10:22.681Z,13.05
2018-01-21T17:12:56.146Z,17.67
2018-01-21T17:15:27.790Z,13.93
2018-01-21T17:17:59.633Z,16.08
2018-01-21T17:20:32.205Z,20.70
2018-01-21T17:25:53.577Z,17.08
2018-01-21T17:31:27.750Z,19.08
2018-01-21T17:34:04.013Z,21.23
2018-01-21T17:36:32.037Z,19.45
2018-01-21T17:39:07.853Z,18.55
2018-01-21T17:41:41.061Z,24.37
2018-01-21T17:44:09.969Z,23.02
2018-01-21T17:46:39.761Z,18.52
2018-01-21T17:52:06.105Z,20.40
2018-01-21T17:54:51.421Z,20.12
2018-01-21T17:57:28.029Z,20.27
2018-01-21T18:00:02.849Z,18.55
2018-01-21T18:02:40.857Z,19.42
2018-01-21T18:05:25.269Z,26.67
2018-01-21T18:07:58.745Z,23.15
2018-01-21T18:10:32.385Z,23.75
2018-01-21T18:13:09.737Z,19.17
2018-01-21T18:22:07.605Z,20.95
2018-01-21T18:24:49.149Z,19.90
2018-01-21T18:30:13.729Z,16.80
2018-01-21T18:32:45.001Z,14.52
2018-01-21T18:35:16.952Z,14.57
2018-01-21T18:38:03.405Z,14.65
2018-01-21T18:40:43.361Z,13.55
2018-01-21T18:43:14.421Z,11.18
2018-01-21T18:46:01.833Z,13.65
2018-01-21T18:48:47.596Z,15.52
2018-01-21T18:51:19.505Z,17.12
2018-01-21T18:53:58.419Z,18.05
2018-01-21T18:56:32.729Z,15.45
2018-01-21T18:59:13.308Z,17.17
2018-01-21T19:01:42.296Z,17.00
2018-01-21T19:07:03.814Z,15.25
2018-01-21T19:09:38.232Z,15.88
2018-01-21T19:12:27.091Z,12.32
2018-01-21T19:17:59.409Z,12.20
2018-01-21T19:20:45.221Z,16.45
2018-01-21T19:23:22.184Z,484.65
2018-01-21T19:26:13.449Z,520.72
2018-01-21T19:29:02.029Z,200.85
2018-01-21T19:31:43.192Z,81.87
2018-01-21T19:34:11.264Z,343.45
2018-01-21T19:36:44.153Z,130.35
2018-01-21T19:39:16.664Z,52.97
2018-01-21T19:42:00.189Z,21.08
2018-01-21T19:44:29.845Z,26.17
2018-01-21T19:49:56.249Z,367.95
2018-01-21T19:52:31.844Z,133.07
2018-01-21T19:55:11.913Z,79.40
2018-01-21T19:57:40.853Z,232.35
2018-01-21T20:00:22.425Z,305.77
2018-01-21T20:02:57.958Z,199.30
2018-01-21T20:05:30.664Z,361.83
2018-01-21T20:08:04.708Z,219.62
2018-01-21T20:10:34.752Z,319.73
2018-01-21T20:13:05.305Z,364.02
2018-01-21T20:15:36.684Z,342.87
2018-01-21T20:18:11.292Z,431.23
2018-01-21T20:20:47.024Z,485.73
2018-01-21T20:23:22.712Z,491.12
2018-01-21T20:25:52.500Z,283.23
2018-01-21T20:28:21.285Z,174.55
2018-01-21T20:30:50.072Z,204.60
2018-01-21T20:33:18.872Z,161.18
2018-01-21T20:35:49.664Z,151.98
2018-01-21T20:38:18.599Z,110.25
2018-01-21T20:40:49.297Z,206.25
2018-01-21T20:43:17.324Z,214.25
2018-01-21T20:45:45.380Z,216.00
2018-01-21T20:48:13.384Z,147.02
2018-01-21T20:50:44.753Z,181.18
2018-01-21T20:53:18.504Z,167.30
2018-01-21T20:55:46.536Z,132.10
2018-01-21T20:58:18.080Z,103.97
2018-01-21T21:00:48.108Z,160.52
2018-01-21T21:03:17.076Z,227.32
2018-01-21T21:05:45.112Z,259.17
2018-01-21T21:08:17.740Z,270.40
2018-01-21T21:10:48.476Z,273.08
2018-01-21T21:13:16.496Z,182.18
2018-01-21T21:15:48.708Z,287.77
2018-01-21T21:18:23.596Z,200.13
2018-01-21T21:20:52.624Z,98.82
2018-01-21T21:23:20.648Z,133.00
2018-01-21T21:25:56.024Z,140.12
2018-01-21T21:28:26.056Z,107.10
2018-01-21T21:30:55.043Z,117.68
2018-01-21T21:33:43.660Z,81.43
2018-01-21T21:36:11.688Z,137.23
2018-01-21T21:38:42.462Z,120.45
2018-01-21T21:41:11.432Z,95.85
2018-01-21T21:43:43.752Z,124.38
2018-01-21T21:46:15.512Z,152.55
2018-01-21T21:48:45.539Z,148.52
2018-01-21T21:51:13.559Z,157.75
2018-01-21T21:53:41.575Z,125.82
2018-01-21T21:56:10.592Z,138.70
2018-01-21T21:58:40.376Z,197.70
2018-01-21T22:01:15.893Z,241.52
2018-01-21T22:03:44.920Z,235.50
2018-01-21T22:06:13.908Z,103.75
2018-01-21T22:08:42.908Z,28.52
2018-01-21T22:11:11.891Z,42.22
2018-01-21T22:13:39.916Z,31.75
2018-01-21T22:16:11.980Z,44.13
2018-01-21T22:18:40.000Z,33.78
2018-01-21T22:21:10.064Z,41.75
2018-01-21T22:23:38.115Z,86.15
2018-01-21T22:26:08.939Z,103.93
2018-01-21T22:28:37.911Z,35.03
2018-01-21T22:31:06.907Z,30.20
2018-01-21T22:33:34.940Z,39.17
2018-01-21T22:36:18.035Z,31.25
2018-01-21T22:38:47.163Z,37.28
2018-01-21T22:41:15.179Z,31.37
2018-01-21T22:43:44.044Z,32.88
2018-01-21T22:46:17.339Z,29.17
2018-01-21T22:48:51.875Z,34.28
2018-01-21T22:51:19.927Z,33.83
2018-01-21T22:53:47.951Z,39.45
2018-01-21T22:56:16.903Z,35.10
2018-01-21T22:58:46.939Z,30.52
2018-01-21T23:01:18.551Z,33.80
2018-01-21T23:03:46.571Z,28.75
2018-01-21T23:06:21.258Z,29.08
2018-01-21T23:08:49.263Z,38.53
2018-01-21T23:11:21.335Z,34.85
2018-01-21T23:13:53.251Z,36.67
2018-01-21T23:16:28.983Z,35.70
2018-01-21T23:18:57.795Z,39.35
2018-01-21T23:21:25.821Z,38.85
2018-01-21T23:23:53.835Z,40.10
2018-01-21T23:26:32.527Z,36.22
2018-01-21T23:29:04.203Z,40.35
2018-01-21T23:31:32.639Z,37.78
2018-01-21T23:34:01.583Z,33.78
2018-01-21T23:36:31.599Z,37.58
2018-01-21T23:39:03.055Z,42.97
2018-01-21T23:41:32.026Z,28.85
2018-01-21T23:44:01.035Z,34.50
2018-01-21T23:46:29.194Z,32.58
2018-01-21T23:49:03.279Z,30.58
2018-01-21T23:51:31.298Z,30.85
2018-01-21T23:54:00.271Z,27.92
2018-01-21T23:56:32.951Z,31.52
2018-01-21T23:59:00.977Z,42.15
